sensor_id;sensor_type;location;lat;lon;timestamp;pressure;altitude;pressure_sealevel;temperature;humidity
77165;BME280;66140;50.280;18.660;2023-02-13T05:00:59;101044.25;;;1.46;100.00
77165;BME280;66140;50.280;18.660;2023-02-13T05:03:24;101048.63;;;1.51;100.00
77165;BME280;66140;50.280;18.660;2023-02-13T05:05:50;101052.09;;;1.49;100.00
77165;BME280;66140;50.280;18.660;2023-02-13T05:08:15;101039.00;;;1.49;100.00
77165;BME280;66140;50.280;18.660;2023-02-13T05:10:41;101039.00;;;1.46;100.00
77165;BME280;66140;50.280;18.660;2023-02-13T05:13:06;101047.72;;;1.45;100.00
77165;BME280;66140;50.280;18.660;2023-02-13T05:15:32;101036.38;;;1.40;100.00
77165;BME280;66140;50.280;18.660;2023-02-13T05:17:58;101040.72;;;1.39;100.00
77165;BME280;66140;50.280;18.660;2023-02-13T05:20:23;101037.22;;;1.33;100.00
77165;BME280;66140;50.280;18.660;2023-02-13T05:22:51;101031.94;;;1.25;100.00
77165;BME280;66140;50.280;18.660;2023-02-13T05:25:38;101028.38;;;1.12;100.00
77165;BME280;66140;50.280;18.660;2023-02-13T05:28:04;101042.34;;;1.14;100.00
77165;BME280;66140;50.280;18.660;2023-02-13T05:30:50;101045.78;;;1.07;100.00
77165;BME280;66140;50.280;18.660;2023-02-13T05:33:15;101044.06;;;1.15;100.00
77165;BME280;66140;50.280;18.660;2023-02-13T05:35:41;101054.66;;;1.34;100.00
77165;BME280;66140;50.280;18.660;2023-02-13T05:38:06;101045.88;;;1.29;100.00
77165;BME280;66140;50.280;18.660;2023-02-13T05:40:31;101039.78;;;1.28;100.00
77165;BME280;66140;50.280;18.660;2023-02-13T05:42:57;101040.69;;;1.27;100.00
77165;BME280;66140;50.280;18.660;2023-02-13T05:45:22;101046.75;;;1.22;100.00
77165;BME280;66140;50.280;18.660;2023-02-13T05:47:48;101046.72;;;1.23;100.00
77165;BME280;66140;50.280;18.660;2023-02-13T05:50:13;101047.59;;;1.17;100.00
77165;BME280;66140;50.280;18.660;2023-02-13T05:52:39;101031.00;;;1.11;100.00
77165;BME280;66140;50.280;18.660;2023-02-13T05:55:04;101044.00;;;1.00;100.00
77165;BME280;66140;50.280;18.660;2023-02-13T05:57:30;101050.97;;;0.95;100.00
77165;BME280;66140;50.280;18.660;2023-02-13T05:59:55;101043.03;;;0.85;100.00
77165;BME280;66140;50.280;18.660;2023-02-13T06:02:21;101047.34;;;0.75;100.00
77165;BME280;66140;50.280;18.660;2023-02-13T06:04:46;101048.16;;;0.69;100.00
77165;BME280;66140;50.280;18.660;2023-02-13T06:07:11;101062.91;;;0.66;100.00
77165;BME280;66140;50.280;18.660;2023-02-13T06:09:37;101056.75;;;0.58;100.00
77165;BME280;66140;50.280;18.660;2023-02-13T06:12:02;101058.41;;;0.47;100.00
77165;BME280;66140;50.280;18.660;2023-02-13T06:14:28;101063.63;;;0.45;100.00
77165;BME280;66140;50.280;18.660;2023-02-13T06:16:53;101057.50;;;0.42;100.00
77165;BME280;66140;50.280;18.660;2023-02-13T06:19:18;101061.84;;;0.38;100.00
77165;BME280;66140;50.280;18.660;2023-02-13T06:21:44;101068.75;;;0.31;100.00
77165;BME280;66140;50.280;18.660;2023-02-13T06:24:09;101058.34;;;0.36;100.00
77165;BME280;66140;50.280;18.660;2023-02-13T06:26:35;101060.97;;;0.37;100.00
77165;BME280;66140;50.280;18.660;2023-02-13T06:29:00;101064.47;;;0.43;100.00
77165;BME280;66140;50.280;18.660;2023-02-13T06:31:28;101059.31;;;0.49;100.00
77165;BME280;66140;50.280;18.660;2023-02-13T06:33:53;101064.59;;;0.58;100.00
77165;BME280;66140;50.280;18.660;2023-02-13T06:36:19;101069.91;;;0.64;100.00
77165;BME280;66140;50.280;18.660;2023-02-13T06:38:45;101061.19;;;0.66;100.00
77165;BME280;66140;50.280;18.660;2023-02-13T06:41:10;101057.69;;;0.63;100.00
77165;BME280;66140;50.280;18.660;2023-02-13T06:43:35;101069.94;;;0.70;100.00
77165;BME280;66140;50.280;18.660;2023-02-13T06:46:05;101082.16;;;0.77;100.00
77165;BME280;66140;50.280;18.660;2023-02-13T06:48:30;101070.00;;;0.80;100.00
77165;BME280;66140;50.280;18.660;2023-02-13T06:50:56;101070.03;;;0.82;100.00
77165;BME280;66140;50.280;18.660;2023-02-13T06:53:22;101084.03;;;0.93;100.00
77165;BME280;66140;50.280;18.660;2023-02-13T06:55:53;101065.72;;;0.89;100.00
77165;BME280;66140;50.280;18.660;2023-02-13T06:58:20;101066.63;;;0.95;100.00
77165;BME280;66140;50.280;18.660;2023-02-13T07:00:49;101076.28;;;1.05;100.00
77165;BME280;66140;50.280;18.660;2023-02-13T07:03:15;101068.50;;;1.14;100.00
77165;BME280;66140;50.280;18.660;2023-02-13T07:05:41;101075.47;;;1.18;100.00
77165;BME280;66140;50.280;18.660;2023-02-13T07:08:18;101071.19;;;1.27;100.00
77165;BME280;66140;50.280;18.660;2023-02-13T07:10:43;101075.59;;;1.40;100.00
77165;BME280;66140;50.280;18.660;2023-02-13T07:13:09;101067.78;;;1.49;100.00
77165;BME280;66140;50.280;18.660;2023-02-13T07:15:36;101066.09;;;1.60;100.00
77165;BME280;66140;50.280;18.660;2023-02-13T07:18:02;101067.00;;;1.74;100.00
77165;BME280;66140;50.280;18.660;2023-02-13T07:20:28;101060.03;;;1.79;100.00
77165;BME280;66140;50.280;18.660;2023-02-13T07:22:57;101059.19;;;1.88;100.00
77165;BME280;66140;50.280;18.660;2023-02-13T07:25:23;101070.59;;;1.97;100.00
77165;BME280;66140;50.280;18.660;2023-02-13T07:27:49;101068.84;;;2.07;100.00
77165;BME280;66140;50.280;18.660;2023-02-13T07:30:14;101078.47;;;2.14;100.00
77165;BME280;66140;50.280;18.660;2023-02-13T07:32:40;101073.22;;;2.19;100.00
77165;BME280;66140;50.280;18.660;2023-02-13T07:35:05;101074.09;;;2.18;100.00
77165;BME280;66140;50.280;18.660;2023-02-13T07:37:31;101077.59;;;2.17;100.00
77165;BME280;66140;50.280;18.660;2023-02-13T07:39:56;101085.47;;;2.23;100.00
77165;BME280;66140;50.280;18.660;2023-02-13T07:42:22;101068.00;;;2.17;100.00
77165;BME280;66140;50.280;18.660;2023-02-13T07:44:57;101067.16;;;2.23;100.00
77165;BME280;66140;50.280;18.660;2023-02-13T07:47:23;101069.78;;;2.30;100.00
77165;BME280;66140;50.280;18.660;2023-02-13T07:49:48;101064.53;;;2.35;100.00
77165;BME280;66140;50.280;18.660;2023-02-13T07:52:13;101068.00;;;2.37;100.00
77165;BME280;66140;50.280;18.660;2023-02-13T07:54:39;101062.78;;;2.41;100.00
77165;BME280;66140;50.280;18.660;2023-02-13T07:57:15;101068.91;;;2.50;100.00
77165;BME280;66140;50.280;18.660;2023-02-13T07:59:40;101063.66;;;2.54;100.00
77165;BME280;66140;50.280;18.660;2023-02-13T08:02:10;101063.66;;;2.60;100.00
77165;BME280;66140;50.280;18.660;2023-02-13T08:04:36;101055.81;;;2.68;100.00
77165;BME280;66140;50.280;18.660;2023-02-13T08:07:01;101054.94;;;2.81;100.00
77165;BME280;66140;50.280;18.660;2023-02-13T08:09:27;101061.88;;;2.90;100.00
77165;BME280;66140;50.280;18.660;2023-02-13T08:12:11;101060.16;;;2.92;100.00
77165;BME280;66140;50.280;18.660;2023-02-13T08:14:36;101060.16;;;3.01;100.00
77165;BME280;66140;50.280;18.660;2023-02-13T08:17:02;101059.22;;;3.09;100.00
77165;BME280;66140;50.280;18.660;2023-02-13T08:19:27;101055.75;;;3.10;100.00
77165;BME280;66140;50.280;18.660;2023-02-13T08:21:53;101059.22;;;3.11;100.00
77165;BME280;66140;50.280;18.660;2023-02-13T08:24:19;101061.84;;;3.14;99.90
77165;BME280;66140;50.280;18.660;2023-02-13T08:26:44;101059.22;;;3.11;99.75
77165;BME280;66140;50.280;18.660;2023-02-13T08:29:10;101075.84;;;3.13;99.53
77165;BME280;66140;50.280;18.660;2023-02-13T08:31:35;101060.97;;;3.09;100.00
77165;BME280;66140;50.280;18.660;2023-02-13T08:34:01;101057.44;;;3.23;99.87
77165;BME280;66140;50.280;18.660;2023-02-13T08:36:26;101053.06;;;3.29;99.71
77165;BME280;66140;50.280;18.660;2023-02-13T08:38:52;101067.06;;;3.32;99.76
77165;BME280;66140;50.280;18.660;2023-02-13T08:41:17;101079.28;;;3.39;98.68
77165;BME280;66140;50.280;18.660;2023-02-13T08:43:45;101077.53;;;3.35;98.78
77165;BME280;66140;50.280;18.660;2023-02-13T08:46:10;101068.78;;;3.33;99.29
77165;BME280;66140;50.280;18.660;2023-02-13T08:48:35;101066.16;;;3.35;99.81
77165;BME280;66140;50.280;18.660;2023-02-13T08:51:05;101056.56;;;3.29;99.19
77165;BME280;66140;50.280;18.660;2023-02-13T08:53:32;101060.94;;;3.29;99.78
77165;BME280;66140;50.280;18.660;2023-02-13T08:55:58;101060.94;;;3.30;99.27
77165;BME280;66140;50.280;18.660;2023-02-13T08:58:23;101074.03;;;3.36;99.85
77165;BME280;66140;50.280;18.660;2023-02-13T09:00:49;101067.00;;;3.41;100.00
77165;BME280;66140;50.280;18.660;2023-02-13T09:03:14;101060.00;;;3.49;99.59
77165;BME280;66140;50.280;18.660;2023-02-13T09:05:41;101064.38;;;3.47;99.58
77165;BME280;66140;50.280;18.660;2023-02-13T09:08:06;101056.50;;;3.46;99.30
77165;BME280;66140;50.280;18.660;2023-02-13T09:10:36;101060.00;;;3.49;99.45
77165;BME280;66140;50.280;18.660;2023-02-13T09:13:02;101071.34;;;3.57;100.00
77165;BME280;66140;50.280;18.660;2023-02-13T09:15:27;101059.94;;;3.60;99.85
77165;BME280;66140;50.280;18.660;2023-02-13T09:17:53;101067.78;;;3.66;99.96
77165;BME280;66140;50.280;18.660;2023-02-13T09:20:18;101073.91;;;3.67;99.67
77165;BME280;66140;50.280;18.660;2023-02-13T09:22:44;101069.53;;;3.70;99.08
77165;BME280;66140;50.280;18.660;2023-02-13T09:25:09;101059.00;;;3.72;99.63
77165;BME280;66140;50.280;18.660;2023-02-13T09:27:35;101065.13;;;3.74;100.00
77165;BME280;66140;50.280;18.660;2023-02-13T09:30:07;101067.69;;;3.84;99.96
77165;BME280;66140;50.280;18.660;2023-02-13T09:32:33;101075.53;;;3.92;99.61
77165;BME280;66140;50.280;18.660;2023-02-13T09:34:59;101073.75;;;4.03;99.76
77165;BME280;66140;50.280;18.660;2023-02-13T09:37:24;101066.72;;;4.08;99.35
77165;BME280;66140;50.280;18.660;2023-02-13T09:39:51;101065.84;;;4.09;98.77
77165;BME280;66140;50.280;18.660;2023-02-13T09:42:20;101067.53;;;4.13;98.53
77165;BME280;66140;50.280;18.660;2023-02-13T09:44:54;101071.94;;;4.14;98.50
77165;BME280;66140;50.280;18.660;2023-02-13T09:52:32;101061.41;;;4.11;98.59
77165;BME280;66140;50.280;18.660;2023-02-13T09:55:00;101064.97;;;4.06;98.87
77165;BME280;66140;50.280;18.660;2023-02-13T09:57:33;101068.50;;;4.03;98.48
77165;BME280;66140;50.280;18.660;2023-02-13T10:00:21;101059.75;;;3.98;99.13
77165;BME280;66140;50.280;18.660;2023-02-13T10:18:21;101039.13;;;4.62;98.29
77165;BME280;66140;50.280;18.660;2023-02-13T10:20:51;101033.81;;;4.73;98.41
77165;BME280;66140;50.280;18.660;2023-02-13T10:23:26;101029.31;;;4.86;97.85
77165;BME280;66140;50.280;18.660;2023-02-13T10:25:57;101037.94;;;4.98;97.55
77165;BME280;66140;50.280;18.660;2023-02-13T10:28:43;101027.44;;;4.95;97.46
77165;BME280;66140;50.280;18.660;2023-02-13T10:31:32;101033.63;;;4.88;96.45
77165;BME280;66140;50.280;18.660;2023-02-13T10:34:01;101021.50;;;4.75;97.27
77165;BME280;66140;50.280;18.660;2023-02-13T10:36:30;101025.03;;;4.71;97.26
77165;BME280;66140;50.280;18.660;2023-02-13T10:41:53;101011.66;;;4.95;98.40
77165;BME280;66140;50.280;18.660;2023-02-13T10:50:35;101013.09;;;5.23;96.77
77165;BME280;66140;50.280;18.660;2023-02-13T10:58:50;100989.97;;;5.50;96.72
77165;BME280;66140;50.280;18.660;2023-02-13T11:04:11;100992.25;;;5.74;95.52
77165;BME280;66140;50.280;18.660;2023-02-13T11:06:53;100986.06;;;5.77;95.67
77165;BME280;66140;50.280;18.660;2023-02-13T11:09:20;100982.56;;;5.76;94.44
77165;BME280;66140;50.280;18.660;2023-02-13T11:11:45;100985.25;;;5.75;94.53
77165;BME280;66140;50.280;18.660;2023-02-13T11:19:17;100970.75;;;5.42;94.56
77165;BME280;66140;50.280;18.660;2023-02-13T11:21:45;100977.88;;;5.34;95.16
77165;BME280;66140;50.280;18.660;2023-02-13T11:24:20;100973.66;;;5.19;95.60
77165;BME280;66140;50.280;18.660;2023-02-13T11:26:53;100976.41;;;5.11;96.50
77165;BME280;66140;50.280;18.660;2023-02-13T11:29:31;100967.66;;;5.09;97.32
77165;BME280;66140;50.280;18.660;2023-02-13T11:32:09;100981.81;;;4.99;97.33
77165;BME280;66140;50.280;18.660;2023-02-13T11:34:42;100981.91;;;4.87;96.97
77165;BME280;66140;50.280;18.660;2023-02-13T11:37:19;100989.00;;;4.82;97.72
77165;BME280;66140;50.280;18.660;2023-02-13T11:39:47;100967.16;;;4.74;97.53
77165;BME280;66140;50.280;18.660;2023-02-13T11:44:49;100973.28;;;4.76;98.30
77165;BME280;66140;50.280;18.660;2023-02-13T11:47:29;100977.59;;;4.83;98.36
77165;BME280;66140;50.280;18.660;2023-02-13T11:49:56;100966.19;;;4.86;98.91
77165;BME280;66140;50.280;18.660;2023-02-13T11:52:28;100965.34;;;4.80;98.15
77165;BME280;66140;50.280;18.660;2023-02-13T11:55:03;100958.31;;;4.84;98.08
77165;BME280;66140;50.280;18.660;2023-02-13T11:57:34;100950.47;;;4.78;97.60
77165;BME280;66140;50.280;18.660;2023-02-13T12:00:25;100957.50;;;4.74;97.43
77165;BME280;66140;50.280;18.660;2023-02-13T12:02:48;100950.56;;;4.69;98.44
77165;BME280;66140;50.280;18.660;2023-02-13T12:05:21;100947.13;;;4.62;98.26
77165;BME280;66140;50.280;18.660;2023-02-13T12:07:48;100955.81;;;4.69;98.36
77165;BME280;66140;50.280;18.660;2023-02-13T12:12:59;100961.19;;;4.57;98.09
77165;BME280;66140;50.280;18.660;2023-02-13T12:15:29;100959.44;;;4.56;97.94
77165;BME280;66140;50.280;18.660;2023-02-13T12:20:36;100943.69;;;4.56;98.67
77165;BME280;66140;50.280;18.660;2023-02-13T12:25:52;100953.25;;;4.66;98.57
77165;BME280;66140;50.280;18.660;2023-02-13T12:28:27;100954.13;;;4.65;98.51
77165;BME280;66140;50.280;18.660;2023-02-13T12:37:18;100957.63;;;4.64;98.63
77165;BME280;66140;50.280;18.660;2023-02-13T12:42:49;100957.56;;;4.70;98.37
77165;BME280;66140;50.280;18.660;2023-02-13T12:56:49;100950.41;;;4.84;98.73
77165;BME280;66140;50.280;18.660;2023-02-13T13:02:12;100949.47;;;4.91;98.12
77165;BME280;66140;50.280;18.660;2023-02-13T13:07:39;100945.09;;;4.90;98.58
77165;BME280;66140;50.280;18.660;2023-02-13T13:10:21;100936.19;;;5.00;98.26
77165;BME280;66140;50.280;18.660;2023-02-13T13:13:00;100941.34;;;5.09;98.55
77165;BME280;66140;50.280;18.660;2023-02-13T13:15:39;100942.97;;;5.19;97.80
77165;BME280;66140;50.280;18.660;2023-02-13T13:21:47;100945.50;;;5.25;97.05
77165;BME280;66140;50.280;18.660;2023-02-13T13:23:59;100944.69;;;5.23;97.57
77165;BME280;66140;50.280;18.660;2023-02-13T13:26:43;100949.97;;;5.20;96.51
77165;BME280;66140;50.280;18.660;2023-02-13T13:29:17;100952.69;;;5.13;96.54
77165;BME280;66140;50.280;18.660;2023-02-13T13:31:49;100948.44;;;5.04;97.70
77165;BME280;66140;50.280;18.660;2023-02-13T13:34:22;100957.19;;;5.03;98.04
77165;BME280;66140;50.280;18.660;2023-02-13T13:36:54;100960.88;;;4.87;97.97
77165;BME280;66140;50.280;18.660;2023-02-13T13:47:05;100938.94;;;4.90;99.05
77165;BME280;66140;50.280;18.660;2023-02-13T13:50:32;100950.28;;;4.96;98.49
77165;BME280;66140;50.280;18.660;2023-02-13T13:52:38;100936.22;;;4.97;97.90
77165;BME280;66140;50.280;18.660;2023-02-13T13:55:04;100945.88;;;4.98;98.79
77165;BME280;66140;50.280;18.660;2023-02-13T14:02:37;100953.91;;;4.86;98.76
77165;BME280;66140;50.280;18.660;2023-02-13T14:07:40;100940.91;;;4.69;98.29
77165;BME280;66140;50.280;18.660;2023-02-13T14:36:34;100949.13;;;4.37;95.98
77165;BME280;66140;50.280;18.660;2023-02-13T14:39:04;100940.41;;;4.32;96.06
77165;BME280;66140;50.280;18.660;2023-02-13T14:41:40;100944.78;;;4.35;96.59
77165;BME280;66140;50.280;18.660;2023-02-13T14:44:18;100939.59;;;4.29;96.11
77165;BME280;66140;50.280;18.660;2023-02-13T14:46:45;100926.44;;;4.27;96.80
77165;BME280;66140;50.280;18.660;2023-02-13T14:49:26;100929.13;;;4.21;96.96
77165;BME280;66140;50.280;18.660;2023-02-13T14:51:55;100938.78;;;4.16;96.59
77165;BME280;66140;50.280;18.660;2023-02-13T14:54:33;100943.25;;;4.10;96.66
77165;BME280;66140;50.280;18.660;2023-02-13T14:57:18;100942.44;;;4.03;96.15
77165;BME280;66140;50.280;18.660;2023-02-13T14:59:50;100942.44;;;4.00;96.18
77165;BME280;66140;50.280;18.660;2023-02-13T15:02:22;100937.19;;;3.97;96.54
77165;BME280;66140;50.280;18.660;2023-02-13T15:04:56;100924.97;;;3.96;96.70
77165;BME280;66140;50.280;18.660;2023-02-13T15:07:28;100935.44;;;3.97;96.11
77165;BME280;66140;50.280;18.660;2023-02-13T15:09:59;100938.97;;;3.96;95.60
77165;BME280;66140;50.280;18.660;2023-02-13T15:14:56;100932.84;;;3.91;94.45
77165;BME280;66140;50.280;18.660;2023-02-13T15:17:32;100934.66;;;3.88;94.29
77165;BME280;66140;50.280;18.660;2023-02-13T15:22:40;100939.06;;;3.80;93.06
77165;BME280;66140;50.280;18.660;2023-02-13T15:25:24;100926.88;;;3.74;93.81
77165;BME280;66140;50.280;18.660;2023-02-13T15:27:55;100921.63;;;3.73;93.75
77165;BME280;66140;50.280;18.660;2023-02-13T15:30:25;100922.50;;;3.75;94.25
77165;BME280;66140;50.280;18.660;2023-02-13T15:35:25;100924.28;;;3.68;93.05
77165;BME280;66140;50.280;18.660;2023-02-13T15:37:51;100920.78;;;3.66;93.45
77165;BME280;66140;50.280;18.660;2023-02-13T15:42:46;100926.09;;;3.58;93.41
77165;BME280;66140;50.280;18.660;2023-02-13T15:45:16;100922.66;;;3.52;93.84
77165;BME280;66140;50.280;18.660;2023-02-13T15:47:44;100920.91;;;3.51;93.90
77165;BME280;66140;50.280;18.660;2023-02-13T15:50:19;100927.03;;;3.50;94.39
77165;BME280;66140;50.280;18.660;2023-02-13T15:52:46;100940.16;;;3.47;94.60
77165;BME280;66140;50.280;18.660;2023-02-13T15:55:21;100931.47;;;3.36;95.06
77165;BME280;66140;50.280;18.660;2023-02-13T15:57:48;100930.59;;;3.35;95.27
77165;BME280;66140;50.280;18.660;2023-02-13T16:00:35;100931.47;;;3.36;94.74
77165;BME280;66140;50.280;18.660;2023-02-13T16:03:03;100939.31;;;3.40;94.87
77165;BME280;66140;50.280;18.660;2023-02-13T16:05:36;100934.09;;;3.34;94.79
77165;BME280;66140;50.280;18.660;2023-02-13T16:08:02;100938.47;;;3.35;94.50
77165;BME280;66140;50.280;18.660;2023-02-13T16:10:30;100930.63;;;3.29;94.47
77165;BME280;66140;50.280;18.660;2023-02-13T16:12:57;100938.47;;;3.35;94.09
77165;BME280;66140;50.280;18.660;2023-02-13T16:15:26;100924.56;;;3.24;94.69
77165;BME280;66140;50.280;18.660;2023-02-13T16:17:53;100927.16;;;3.27;94.51
77165;BME280;66140;50.280;18.660;2023-02-13T16:20:21;100907.94;;;3.25;94.28
77165;BME280;66140;50.280;18.660;2023-02-13T16:22:50;100926.31;;;3.25;94.64
77165;BME280;66140;50.280;18.660;2023-02-13T16:25:26;100936.78;;;3.23;94.63
77165;BME280;66140;50.280;18.660;2023-02-13T16:28:01;100927.19;;;3.15;94.66
77165;BME280;66140;50.280;18.660;2023-02-13T16:30:40;100925.47;;;3.20;94.01
77165;BME280;66140;50.280;18.660;2023-02-13T16:35:46;100917.59;;;3.20;94.09
77165;BME280;66140;50.280;18.660;2023-02-13T16:41:00;100928.06;;;3.17;94.38
77165;BME280;66140;50.280;18.660;2023-02-13T16:43:40;100917.59;;;3.15;93.81
77165;BME280;66140;50.280;18.660;2023-02-13T16:51:43;100932.44;;;3.18;93.13
77165;BME280;66140;50.280;18.660;2023-02-13T16:56:46;100924.59;;;3.15;93.84
77165;BME280;66140;50.280;18.660;2023-02-13T16:59:41;100931.53;;;3.20;94.07
77165;BME280;66140;50.280;18.660;2023-02-13T17:04:51;100929.84;;;3.13;93.23
77165;BME280;66140;50.280;18.660;2023-02-13T17:07:26;100931.59;;;3.13;94.02
77165;BME280;66140;50.280;18.660;2023-02-13T17:09:57;100912.34;;;3.15;93.61
77165;BME280;66140;50.280;18.660;2023-02-13T17:12:24;100908.88;;;3.13;94.12
77165;BME280;66140;50.280;18.660;2023-02-13T17:14:52;100903.63;;;3.13;93.67
77165;BME280;66140;50.280;18.660;2023-02-13T17:17:21;100911.47;;;3.15;93.98
77165;BME280;66140;50.280;18.660;2023-02-13T17:19:47;100905.34;;;3.16;93.93
77165;BME280;66140;50.280;18.660;2023-02-13T17:22:25;100911.44;;;3.21;93.51
77165;BME280;66140;50.280;18.660;2023-02-13T17:24:51;100909.72;;;3.20;93.86
77165;BME280;66140;50.280;18.660;2023-02-13T17:27:17;100906.22;;;3.15;92.88
77165;BME280;66140;50.280;18.660;2023-02-13T17:29:42;100911.47;;;3.15;94.14
77165;BME280;66140;50.280;18.660;2023-02-13T17:32:13;100917.59;;;3.15;94.06
77165;BME280;66140;50.280;18.660;2023-02-13T17:34:40;100895.75;;;3.13;94.33
77165;BME280;66140;50.280;18.660;2023-02-13T17:37:23;100896.59;;;3.15;94.19
77165;BME280;66140;50.280;18.660;2023-02-13T17:39:57;100888.75;;;3.14;94.18
77165;BME280;66140;50.280;18.660;2023-02-13T17:42:27;100893.16;;;3.13;94.28
77165;BME280;66140;50.280;18.660;2023-02-13T17:44:55;100885.28;;;3.09;94.74
77165;BME280;66140;50.280;18.660;2023-02-13T17:47:21;100890.56;;;3.06;95.53
77165;BME280;66140;50.280;18.660;2023-02-13T17:49:47;100902.78;;;3.04;95.73
77165;BME280;66140;50.280;18.660;2023-02-13T17:52:19;100900.16;;;3.02;96.39
77165;BME280;66140;50.280;18.660;2023-02-13T17:54:45;100905.41;;;3.04;96.17
77165;BME280;66140;50.280;18.660;2023-02-13T17:57:13;100905.41;;;3.05;96.63
77165;BME280;66140;50.280;18.660;2023-02-13T17:59:47;100896.66;;;3.06;96.42
77165;BME280;66140;50.280;18.660;2023-02-13T18:02:16;100901.88;;;3.09;96.90
77165;BME280;66140;50.280;18.660;2023-02-13T18:04:44;100897.53;;;3.05;97.34
77165;BME280;66140;50.280;18.660;2023-02-13T18:07:11;100893.19;;;3.04;97.51
77165;BME280;66140;50.280;18.660;2023-02-13T18:09:37;100895.78;;;3.06;97.42
77165;BME280;66140;50.280;18.660;2023-02-13T18:12:04;100908.03;;;3.04;97.38
77165;BME280;66140;50.280;18.660;2023-02-13T18:14:30;100918.56;;;3.01;97.94
77165;BME280;66140;50.280;18.660;2023-02-13T18:16:56;100894.94;;;2.99;97.79
77165;BME280;66140;50.280;18.660;2023-02-13T18:19:21;100886.19;;;3.05;98.13
77165;BME280;66140;50.280;18.660;2023-02-13T18:21:48;100879.19;;;3.04;98.14
77165;BME280;66140;50.280;18.660;2023-02-13T18:24:14;100862.53;;;3.08;97.98
77165;BME280;66140;50.280;18.660;2023-02-13T18:26:39;100856.44;;;3.12;97.81
77165;BME280;66140;50.280;18.660;2023-02-13T18:29:05;100844.19;;;3.09;98.03
77165;BME280;66140;50.280;18.660;2023-02-13T18:31:31;100857.34;;;3.05;97.65
77165;BME280;66140;50.280;18.660;2023-02-13T18:33:56;100877.41;;;3.07;98.08
77165;BME280;66140;50.280;18.660;2023-02-13T18:36:22;100887.06;;;3.04;97.84
77165;BME280;66140;50.280;18.660;2023-02-13T18:38:49;100888.81;;;3.02;98.35
77165;BME280;66140;50.280;18.660;2023-02-13T18:41:14;100890.53;;;3.07;97.99
77165;BME280;66140;50.280;18.660;2023-02-13T18:43:40;100887.06;;;3.07;98.00
77165;BME280;66140;50.280;18.660;2023-02-13T18:46:06;100900.13;;;3.08;98.00
77165;BME280;66140;50.280;18.660;2023-02-13T18:48:31;100888.78;;;3.08;97.99
77165;BME280;66140;50.280;18.660;2023-02-13T18:51:00;100890.53;;;3.12;97.64
77165;BME280;66140;50.280;18.660;2023-02-13T18:53:27;100901.00;;;3.09;97.58
77165;BME280;66140;50.280;18.660;2023-02-13T18:56:04;100916.75;;;3.09;97.60
77165;BME280;66140;50.280;18.660;2023-02-13T18:58:30;100908.03;;;3.07;97.73
77165;BME280;66140;50.280;18.660;2023-02-13T19:00:56;100906.28;;;3.03;97.92
77165;BME280;66140;50.280;18.660;2023-02-13T19:03:29;100901.88;;;3.08;98.04
77165;BME280;66140;50.280;18.660;2023-02-13T19:05:54;100922.00;;;3.10;97.84
77165;BME280;66140;50.280;18.660;2023-02-13T19:08:21;100923.75;;;3.10;97.92
77165;BME280;66140;50.280;18.660;2023-02-13T19:10:46;100907.16;;;3.02;98.18
77165;BME280;66140;50.280;18.660;2023-02-13T19:13:12;100908.94;;;2.97;98.23
77165;BME280;66140;50.280;18.660;2023-02-13T19:15:37;100920.31;;;2.99;98.17
77165;BME280;66140;50.280;18.660;2023-02-13T19:18:03;100927.25;;;3.03;98.41
77165;BME280;66140;50.280;18.660;2023-02-13T19:20:28;100923.78;;;2.99;98.19
77165;BME280;66140;50.280;18.660;2023-02-13T19:22:54;100925.53;;;2.97;98.08
77165;BME280;66140;50.280;18.660;2023-02-13T19:25:20;100920.28;;;2.96;97.99
77165;BME280;66140;50.280;18.660;2023-02-13T19:27:46;100917.69;;;3.00;98.20
77165;BME280;66140;50.280;18.660;2023-02-13T19:30:12;100929.03;;;2.98;98.32
77165;BME280;66140;50.280;18.660;2023-02-13T19:32:37;100930.78;;;2.99;98.33
77165;BME280;66140;50.280;18.660;2023-02-13T19:35:03;100937.75;;;3.03;98.24
77165;BME280;66140;50.280;18.660;2023-02-13T19:37:29;100934.28;;;3.01;97.81
77165;BME280;66140;50.280;18.660;2023-02-13T19:39:54;100939.53;;;3.01;97.84
77165;BME280;66140;50.280;18.660;2023-02-13T19:42:19;100930.78;;;2.99;97.94
77165;BME280;66140;50.280;18.660;2023-02-13T19:44:45;100929.03;;;2.99;97.55
77165;BME280;66140;50.280;18.660;2023-02-13T19:47:10;100917.69;;;2.94;97.92
77165;BME280;66140;50.280;18.660;2023-02-13T19:49:36;100923.78;;;2.98;97.33
77165;BME280;66140;50.280;18.660;2023-02-13T19:52:01;100929.03;;;2.98;97.57
77165;BME280;66140;50.280;18.660;2023-02-13T19:54:27;100927.31;;;2.94;97.41
77165;BME280;66140;50.280;18.660;2023-02-13T19:56:53;100926.41;;;2.95;97.79
77165;BME280;66140;50.280;18.660;2023-02-13T19:59:24;100927.28;;;2.97;97.95
77165;BME280;66140;50.280;18.660;2023-02-13T20:01:50;100930.78;;;3.00;98.01
77165;BME280;66140;50.280;18.660;2023-02-13T20:04:15;100923.81;;;2.92;97.96
77165;BME280;66140;50.280;18.660;2023-02-13T20:06:41;100919.44;;;2.92;97.79
77165;BME280;66140;50.280;18.660;2023-02-13T20:09:09;100915.94;;;2.92;97.87
77165;BME280;66140;50.280;18.660;2023-02-13T20:11:36;100922.91;;;3.00;97.97
77165;BME280;66140;50.280;18.660;2023-02-13T20:14:02;100927.28;;;2.97;97.75
77165;BME280;66140;50.280;18.660;2023-02-13T20:16:29;100932.50;;;3.03;97.67
77165;BME280;66140;50.280;18.660;2023-02-13T20:19:01;100953.50;;;3.06;97.74
77165;BME280;66140;50.280;18.660;2023-02-13T20:21:29;100944.75;;;3.07;97.37
77165;BME280;66140;50.280;18.660;2023-02-13T20:23:55;100962.19;;;3.08;97.25
77165;BME280;66140;50.280;18.660;2023-02-13T20:26:20;100969.19;;;3.09;97.60
77165;BME280;66140;50.280;18.660;2023-02-13T20:28:46;100958.72;;;3.03;97.23
